Startpagina
METAR-TAF:

METAR-TAF

Vliegvelden :

Nanking, China

Internationale luchthaven Nanjing Lukou

breedte: 32-00N, lengte: 118-48E, hoogte: 12 m

Actueel weer

Dit bericht is 1 uur en het 13 minuten geleden gemaakt, om 07:00 UTC
Wind 10 kt uit het oosten
Temperatuur 5°C
Vochtigheid 100%
Druk 1027 hPa
Zicht: 1100 m
Gebroken wolken op 500 ft
Geheel bewolkt op 2000 ft
lichte regen, nevel

METAR: ZSNJ 140700Z 08005MPS 1100 R06/1200D R07/1700N -RA BR BKN005 OVC020 05/05 Q1027 NOSIG

Tijdstip: 16:13 (08:13 UTC)

Verwachting

Dit bericht is 5 uur en het 2 minuten geleden gemaakt, om 03:11 UTC
Verwachting geldig van 14 om 06 UTC tot 15 om 06 UTC
Wind 8 kt uit het oostnoordoosten
Zicht: 2500 m
Verspreide wolken op 1500 ft
Geheel bewolkt op 4000 ft
lichte regen, nevel

TAF: ZSNJ 140311Z 1406/1506 06004MPS 2500 -RA BR SCT015 OVC040 TX05/1406Z TN03/1422Z

Waarnemingen en weersverwachtingen van meer dan 4000 vliegvelden (METAR en TAF).

De beschikbare stations zijn de gele en rode punten op de kaart.

Ga met uw muis naar het station om de naam te zien.

Klik dan om waarnemingen en weersverwachtingen te zien.

kaart wijzigen: klik op de groene knoppen met een zwart kruis om in te zoomen, op de groene knop met een streepje om uit te zoomen of op de groene pijlen voor aangrenzende kaarten.


METAR-TAF: